DAL874 KATL-KBOI
Flight info
| Callsign | DAL874 |
|---|---|
| Flight time | N/A |
| Altitude | 32000 |
| Route | NASSA2 VUZ HRISN CLOUT IZAAC SUTTN J52 TXK PER HYS HLC CYS MBW BPI PIH |
| Aircraft | B739/M-SDE2E3FGHIRWXY/LB1 |
Departure
| Time | 2026-05-06 14:42 |
|---|---|
| Airport | Hartsfield Jackson Atlanta International Airport (KATL) |
Arrival
| Time | N/A |
|---|---|
| Airport | Boise Air Terminal/Gowen Field (KBOI) |
| Time | Latitude | Longitude | Altitude | Speed | Heading |
|---|---|---|---|---|---|
| 2026-05-06 14:10 | 33.64251 | -84.43974 | 1034 ft | 0 kts | 90° |
| 2026-05-06 14:30 | 33.64251 | -84.43993 | 1034 ft | 4 kts | 84° |
| 2026-05-06 14:31 | 33.64246 | -84.44025 | 1034 ft | 4 kts | 69° |
| 2026-05-06 14:31 | 33.64233 | -84.44052 | 1034 ft | 4 kts | 46° |
| 2026-05-06 14:31 | 33.64226 | -84.44060 | 1034 ft | 1 kts | 38° |
| 2026-05-06 14:34 | 33.64229 | -84.44058 | 1034 ft | 2 kts | 31° |
| 2026-05-06 14:34 | 33.64264 | -84.44051 | 1034 ft | 7 kts | 1° |
| 2026-05-06 14:34 | 33.64317 | -84.44051 | 1034 ft | 8 kts | 0° |
| 2026-05-06 14:35 | 33.64377 | -84.44048 | 1034 ft | 9 kts | 11° |
| 2026-05-06 14:35 | 33.64422 | -84.44000 | 1034 ft | 9 kts | 65° |
| 2026-05-06 14:35 | 33.64435 | -84.43923 | 1034 ft | 10 kts | 81° |
| 2026-05-06 14:35 | 33.64446 | -84.43835 | 1034 ft | 11 kts | 82° |
| 2026-05-06 14:36 | 33.64456 | -84.43739 | 1034 ft | 12 kts | 84° |
| 2026-05-06 14:36 | 33.64460 | -84.43635 | 1035 ft | 13 kts | 89° |
| 2026-05-06 14:36 | 33.64460 | -84.43523 | 1035 ft | 14 kts | 90° |
| 2026-05-06 14:36 | 33.64460 | -84.43403 | 1035 ft | 15 kts | 90° |
| 2026-05-06 14:37 | 33.64460 | -84.43276 | 1035 ft | 16 kts | 90° |
| 2026-05-06 14:37 | 33.64460 | -84.43143 | 1035 ft | 16 kts | 90° |
| 2026-05-06 14:37 | 33.64460 | -84.43002 | 1035 ft | 17 kts | 90° |
| 2026-05-06 14:37 | 33.64460 | -84.42854 | 1034 ft | 18 kts | 90° |
| 2026-05-06 14:38 | 33.64468 | -84.42701 | 1034 ft | 19 kts | 87° |
| 2026-05-06 14:38 | 33.64469 | -84.42541 | 1034 ft | 19 kts | 90° |
| 2026-05-06 14:38 | 33.64469 | -84.42376 | 1034 ft | 20 kts | 90° |
| 2026-05-06 14:38 | 33.64495 | -84.42213 | 1034 ft | 20 kts | 61° |
| 2026-05-06 14:39 | 33.64542 | -84.42061 | 1034 ft | 19 kts | 87° |
| 2026-05-06 14:39 | 33.64543 | -84.41903 | 1034 ft | 19 kts | 90° |
| 2026-05-06 14:39 | 33.64543 | -84.41751 | 1035 ft | 18 kts | 90° |
| 2026-05-06 14:39 | 33.64543 | -84.41602 | 1035 ft | 17 kts | 90° |
| 2026-05-06 14:40 | 33.64544 | -84.41459 | 1035 ft | 17 kts | 90° |
| 2026-05-06 14:40 | 33.64543 | -84.41321 | 1035 ft | 16 kts | 90° |
| 2026-05-06 14:40 | 33.64544 | -84.41164 | 1035 ft | 21 kts | 90° |
| 2026-05-06 14:40 | 33.64543 | -84.40984 | 1034 ft | 21 kts | 90° |
| 2026-05-06 14:41 | 33.64554 | -84.40809 | 1034 ft | 21 kts | 74° |
| 2026-05-06 14:41 | 33.64571 | -84.40640 | 1034 ft | 20 kts | 90° |
| 2026-05-06 14:41 | 33.64661 | -84.40569 | 1032 ft | 10 kts | 345° |
| 2026-05-06 14:41 | 33.64678 | -84.40669 | 1032 ft | 24 kts | 269° |
| 2026-05-06 14:42 | 33.64679 | -84.41157 | 1035 ft | 92 kts | 270° |
| 2026-05-06 14:42 | 33.64680 | -84.42172 | 1032 ft | 149 kts | 270° |
| 2026-05-06 14:42 | 33.64674 | -84.43535 | 1328 ft | 168 kts | 268° |
| 2026-05-06 14:42 | 33.64684 | -84.44996 | 1855 ft | 183 kts | 268° |
| 2026-05-06 14:43 | 33.64709 | -84.46503 | 2527 ft | 187 kts | 274° |
| 2026-05-06 14:43 | 33.64993 | -84.48123 | 2725 ft | 207 kts | 280° |
| 2026-05-06 14:43 | 33.65353 | -84.49870 | 2900 ft | 221 kts | 280° |
| 2026-05-06 14:43 | 33.65726 | -84.51714 | 3099 ft | 237 kts | 280° |
| 2026-05-06 14:44 | 33.66108 | -84.53658 | 3521 ft | 245 kts | 280° |
| 2026-05-06 14:44 | 33.66493 | -84.55652 | 4182 ft | 246 kts | 280° |
| 2026-05-06 14:44 | 33.66876 | -84.57657 | 4858 ft | 246 kts | 280° |
| 2026-05-06 14:45 | 33.67586 | -84.61687 | 6103 ft | 248 kts | 279° |
| 2026-05-06 14:45 | 33.67929 | -84.63728 | 6681 ft | 250 kts | 279° |
| 2026-05-06 14:45 | 33.68274 | -84.65783 | 7222 ft | 252 kts | 279° |
| 2026-05-06 14:45 | 33.68624 | -84.67854 | 7809 ft | 252 kts | 279° |
| 2026-05-06 14:46 | 33.68973 | -84.69916 | 8379 ft | 253 kts | 278° |
| 2026-05-06 14:46 | 33.69323 | -84.71988 | 8952 ft | 255 kts | 278° |
| 2026-05-06 14:46 | 33.69677 | -84.74086 | 9620 ft | 255 kts | 277° |
| 2026-05-06 14:46 | 33.70002 | -84.76170 | 10203 ft | 256 kts | 273° |
| 2026-05-06 14:47 | 33.70102 | -84.78371 | 10398 ft | 272 kts | 268° |
| 2026-05-06 14:47 | 33.70087 | -84.80715 | 10529 ft | 289 kts | 267° |
| 2026-05-06 14:47 | 33.70050 | -84.83198 | 10635 ft | 306 kts | 267° |
| 2026-05-06 14:47 | 33.70017 | -84.85815 | 10737 ft | 320 kts | 267° |
| 2026-05-06 14:48 | 33.69999 | -84.87610 | 10818 ft | 328 kts | 268° |
| 2026-05-06 14:48 | 33.69972 | -84.91333 | 10931 ft | 344 kts | 268° |
| 2026-05-06 14:48 | 33.69959 | -84.94250 | 11094 ft | 354 kts | 268° |
| 2026-05-06 14:48 | 33.69951 | -84.96262 | 11262 ft | 357 kts | 268° |
| 2026-05-06 14:49 | 33.69943 | -84.99255 | 11652 ft | 358 kts | 268° |
| 2026-05-06 14:49 | 33.69935 | -85.02238 | 12140 ft | 357 kts | 268° |
| 2026-05-06 14:49 | 33.69926 | -85.05186 | 12593 ft | 358 kts | 268° |
| 2026-05-06 14:49 | 33.69917 | -85.08178 | 13047 ft | 359 kts | 268° |
| 2026-05-06 14:50 | 33.69906 | -85.11180 | 13473 ft | 360 kts | 268° |
| 2026-05-06 14:50 | 33.69895 | -85.14200 | 13876 ft | 361 kts | 268° |
| 2026-05-06 14:50 | 33.69883 | -85.17209 | 14257 ft | 362 kts | 268° |
| 2026-05-06 14:50 | 33.69870 | -85.20244 | 14642 ft | 363 kts | 269° |
| 2026-05-06 14:51 | 33.69855 | -85.23273 | 15048 ft | 364 kts | 268° |
| 2026-05-06 14:51 | 33.69829 | -85.26319 | 15414 ft | 365 kts | 269° |
| 2026-05-06 14:51 | 33.69795 | -85.29367 | 15788 ft | 366 kts | 269° |
| 2026-05-06 14:51 | 33.69760 | -85.32424 | 16132 ft | 368 kts | 269° |
| 2026-05-06 14:52 | 33.69723 | -85.35506 | 16469 ft | 370 kts | 269° |
| 2026-05-06 14:52 | 33.69686 | -85.38598 | 16827 ft | 371 kts | 269° |
| 2026-05-06 14:52 | 33.69649 | -85.41699 | 17172 ft | 372 kts | 269° |
| 2026-05-06 14:52 | 33.69611 | -85.44811 | 17518 ft | 373 kts | 269° |
| 2026-05-06 14:53 | 33.69573 | -85.47935 | 17859 ft | 375 kts | 269° |
| 2026-05-06 14:53 | 33.69534 | -85.51078 | 18177 ft | 377 kts | 269° |
| 2026-05-06 14:53 | 33.69495 | -85.54191 | 18455 ft | 378 kts | 269° |
| 2026-05-06 14:53 | 33.69453 | -85.57395 | 18726 ft | 380 kts | 269° |
| 2026-05-06 14:54 | 33.69412 | -85.60533 | 18973 ft | 382 kts | 270° |
| 2026-05-06 14:54 | 33.69369 | -85.63729 | 19225 ft | 384 kts | 270° |
| 2026-05-06 14:54 | 33.69325 | -85.66936 | 19493 ft | 386 kts | 270° |
| 2026-05-06 14:54 | 33.69280 | -85.70167 | 19761 ft | 387 kts | 270° |
| 2026-05-06 14:55 | 33.69234 | -85.73407 | 19976 ft | 389 kts | 270° |
| 2026-05-06 14:55 | 33.69187 | -85.76660 | 20208 ft | 391 kts | 270° |
| 2026-05-06 14:55 | 33.69139 | -85.79926 | 20469 ft | 392 kts | 270° |
| 2026-05-06 14:55 | 33.69090 | -85.83209 | 20703 ft | 394 kts | 270° |
| 2026-05-06 14:56 | 33.69040 | -85.86503 | 20926 ft | 395 kts | 270° |
| 2026-05-06 14:56 | 33.68988 | -85.89810 | 21143 ft | 397 kts | 270° |
| 2026-05-06 14:56 | 33.68936 | -85.93124 | 21373 ft | 398 kts | 270° |
| 2026-05-06 14:56 | 33.68883 | -85.96456 | 21595 ft | 399 kts | 270° |
| 2026-05-06 14:57 | 33.68829 | -85.99795 | 21807 ft | 401 kts | 270° |
| 2026-05-06 14:57 | 33.68774 | -86.03130 | 21997 ft | 402 kts | 270° |
| 2026-05-06 14:57 | 33.68716 | -86.06508 | 22183 ft | 403 kts | 270° |
| 2026-05-06 14:57 | 33.68658 | -86.09881 | 22379 ft | 405 kts | 270° |
| 2026-05-06 14:58 | 33.68599 | -86.13276 | 22569 ft | 406 kts | 270° |
| 2026-05-06 14:58 | 33.68538 | -86.16663 | 22748 ft | 407 kts | 270° |
| 2026-05-06 14:58 | 33.68477 | -86.20056 | 22925 ft | 408 kts | 270° |
| 2026-05-06 14:58 | 33.68414 | -86.23473 | 23100 ft | 409 kts | 270° |
| 2026-05-06 14:59 | 33.68351 | -86.26887 | 23267 ft | 410 kts | 270° |
| 2026-05-06 14:59 | 33.68287 | -86.30322 | 23460 ft | 411 kts | 270° |
| 2026-05-06 14:59 | 33.68221 | -86.33763 | 23632 ft | 412 kts | 270° |
| 2026-05-06 14:59 | 33.68155 | -86.37165 | 23749 ft | 413 kts | 270° |
| 2026-05-06 15:00 | 33.68087 | -86.40621 | 23853 ft | 415 kts | 270° |
| 2026-05-06 15:00 | 33.68018 | -86.44083 | 23976 ft | 415 kts | 269° |
| 2026-05-06 15:00 | 33.67948 | -86.47553 | 24091 ft | 416 kts | 269° |
| 2026-05-06 15:00 | 33.67877 | -86.51032 | 24207 ft | 416 kts | 269° |
| 2026-05-06 15:01 | 33.67805 | -86.54501 | 24346 ft | 417 kts | 269° |
| 2026-05-06 15:01 | 33.67732 | -86.57980 | 24458 ft | 417 kts | 269° |
| 2026-05-06 15:01 | 33.67657 | -86.61465 | 24560 ft | 418 kts | 269° |
| 2026-05-06 15:01 | 33.67582 | -86.64965 | 24686 ft | 419 kts | 269° |
| 2026-05-06 15:02 | 33.67505 | -86.68462 | 24802 ft | 419 kts | 269° |
| 2026-05-06 15:02 | 33.67427 | -86.71971 | 24921 ft | 420 kts | 269° |
| 2026-05-06 15:02 | 33.67349 | -86.75481 | 25024 ft | 420 kts | 269° |
| 2026-05-06 15:02 | 33.67269 | -86.78988 | 25136 ft | 421 kts | 269° |
| 2026-05-06 15:03 | 33.67190 | -86.82464 | 25238 ft | 421 kts | 269° |
| 2026-05-06 15:03 | 33.67108 | -86.85981 | 25344 ft | 421 kts | 269° |
| 2026-05-06 15:03 | 33.67025 | -86.89495 | 25467 ft | 421 kts | 269° |
| 2026-05-06 15:03 | 33.66824 | -86.93010 | 25568 ft | 422 kts | 265° |
| 2026-05-06 15:04 | 33.66472 | -86.96509 | 25660 ft | 422 kts | 264° |
| 2026-05-06 15:04 | 33.66060 | -87.00001 | 25741 ft | 423 kts | 263° |
| 2026-05-06 15:04 | 33.65636 | -87.03489 | 25823 ft | 423 kts | 263° |
| 2026-05-06 15:04 | 33.65216 | -87.06987 | 25881 ft | 422 kts | 263° |
| 2026-05-06 15:05 | 33.64810 | -87.10467 | 25935 ft | 422 kts | 263° |
| 2026-05-06 15:05 | 33.64413 | -87.13955 | 26112 ft | 420 kts | 264° |
| 2026-05-06 15:05 | 33.64027 | -87.17403 | 26553 ft | 412 kts | 264° |
| 2026-05-06 15:05 | 33.63652 | -87.20780 | 27042 ft | 405 kts | 264° |
| 2026-05-06 15:06 | 33.63283 | -87.24106 | 27528 ft | 399 kts | 264° |
| 2026-05-06 15:06 | 33.62920 | -87.27390 | 27938 ft | 395 kts | 264° |
| 2026-05-06 15:06 | 33.62559 | -87.30652 | 28228 ft | 395 kts | 264° |
| 2026-05-06 15:06 | 33.62197 | -87.33916 | 28460 ft | 395 kts | 264° |
| 2026-05-06 15:07 | 33.61835 | -87.37180 | 28759 ft | 394 kts | 264° |
| 2026-05-06 15:07 | 33.61472 | -87.40426 | 29118 ft | 391 kts | 264° |
| 2026-05-06 15:07 | 33.61111 | -87.43649 | 29491 ft | 389 kts | 264° |
| 2026-05-06 15:07 | 33.60751 | -87.46857 | 29832 ft | 387 kts | 264° |
| 2026-05-06 15:08 | 33.60396 | -87.50014 | 30128 ft | 386 kts | 264° |
| 2026-05-06 15:08 | 33.60036 | -87.53205 | 30409 ft | 385 kts | 264° |
| 2026-05-06 15:08 | 33.59677 | -87.56379 | 30724 ft | 383 kts | 264° |
| 2026-05-06 15:08 | 33.59319 | -87.59538 | 31041 ft | 380 kts | 263° |
| 2026-05-06 15:09 | 33.58963 | -87.62667 | 31340 ft | 379 kts | 263° |
| 2026-05-06 15:09 | 33.58607 | -87.65797 | 31643 ft | 377 kts | 264° |
| 2026-05-06 15:09 | 33.58252 | -87.68905 | 31927 ft | 376 kts | 263° |
| 2026-05-06 15:10 | 33.57540 | -87.75134 | 31950 ft | 379 kts | 263° |
| 2026-05-06 15:10 | 33.56816 | -87.81430 | 31948 ft | 382 kts | 263° |
| 2026-05-06 15:11 | 33.56090 | -87.87715 | 31958 ft | 384 kts | 263° |
| 2026-05-06 15:11 | 33.55350 | -87.94083 | 31950 ft | 387 kts | 263° |
| 2026-05-06 15:12 | 33.54604 | -88.00486 | 31943 ft | 388 kts | 263° |
| 2026-05-06 15:12 | 33.53854 | -88.06887 | 31943 ft | 388 kts | 263° |
| 2026-05-06 15:13 | 33.53101 | -88.13282 | 31939 ft | 387 kts | 263° |
| 2026-05-06 15:13 | 33.52347 | -88.19663 | 31936 ft | 386 kts | 263° |
| 2026-05-06 15:14 | 33.51590 | -88.26031 | 31935 ft | 385 kts | 263° |
| 2026-05-06 15:14 | 33.50833 | -88.32383 | 31935 ft | 384 kts | 263° |
| 2026-05-06 15:15 | 33.50075 | -88.38715 | 31938 ft | 384 kts | 262° |
| 2026-05-06 15:15 | 33.49314 | -88.45041 | 31982 ft | 383 kts | 262° |
| 2026-05-06 15:16 | 33.48583 | -88.51370 | 31989 ft | 383 kts | 265° |
| 2026-05-06 15:16 | 33.48487 | -88.57746 | 31989 ft | 383 kts | 269° |
| 2026-05-06 15:17 | 33.48470 | -88.64074 | 31993 ft | 383 kts | 269° |
| 2026-05-06 15:17 | 33.48435 | -88.70460 | 31989 ft | 383 kts | 268° |
| 2026-05-06 15:18 | 33.48392 | -88.76843 | 31971 ft | 383 kts | 268° |
| 2026-05-06 15:18 | 33.48345 | -88.83241 | 31971 ft | 384 kts | 268° |
| 2026-05-06 15:19 | 33.48295 | -88.89605 | 31971 ft | 385 kts | 268° |
| 2026-05-06 15:19 | 33.48239 | -88.96012 | 31973 ft | 385 kts | 268° |
| 2026-05-06 15:20 | 33.48180 | -89.02442 | 31956 ft | 386 kts | 268° |
| 2026-05-06 15:20 | 33.48118 | -89.08873 | 31955 ft | 386 kts | 268° |
| 2026-05-06 15:21 | 33.48053 | -89.15314 | 31939 ft | 387 kts | 268° |
| 2026-05-06 15:21 | 33.47985 | -89.21752 | 31934 ft | 387 kts | 268° |
| 2026-05-06 15:22 | 33.47913 | -89.28211 | 31928 ft | 388 kts | 268° |
| 2026-05-06 15:22 | 33.47838 | -89.34677 | 31920 ft | 388 kts | 268° |
| 2026-05-06 15:23 | 33.47760 | -89.41121 | 31928 ft | 386 kts | 267° |
| 2026-05-06 15:23 | 33.47679 | -89.47541 | 31927 ft | 385 kts | 267° |
| 2026-05-06 15:24 | 33.47595 | -89.53935 | 31924 ft | 383 kts | 267° |
| 2026-05-06 15:24 | 33.47507 | -89.60313 | 31926 ft | 383 kts | 267° |
| 2026-05-06 15:25 | 33.47417 | -89.66645 | 31927 ft | 382 kts | 267° |
| 2026-05-06 15:25 | 33.47323 | -89.73008 | 31933 ft | 382 kts | 267° |
| 2026-05-06 15:26 | 33.47227 | -89.79369 | 31943 ft | 382 kts | 267° |
| 2026-05-06 15:26 | 33.47126 | -89.85731 | 31941 ft | 382 kts | 267° |
| 2026-05-06 15:27 | 33.47023 | -89.92096 | 31950 ft | 383 kts | 267° |
| 2026-05-06 15:27 | 33.46916 | -89.98473 | 31956 ft | 383 kts | 267° |
| 2026-05-06 15:28 | 33.46806 | -90.04864 | 31953 ft | 384 kts | 266° |
| 2026-05-06 15:28 | 33.46692 | -90.11266 | 31956 ft | 384 kts | 266° |
| 2026-05-06 15:29 | 33.46576 | -90.17632 | 31956 ft | 384 kts | 266° |
| 2026-05-06 15:29 | 33.46456 | -90.24033 | 31954 ft | 384 kts | 266° |
| 2026-05-06 15:30 | 33.46418 | -90.30434 | 31946 ft | 385 kts | 269° |
| 2026-05-06 15:30 | 33.46597 | -90.36848 | 31945 ft | 385 kts | 269° |
| 2026-05-06 15:31 | 33.46799 | -90.43253 | 31945 ft | 385 kts | 269° |
| 2026-05-06 15:31 | 33.46985 | -90.49657 | 31945 ft | 384 kts | 269° |
| 2026-05-06 15:32 | 33.47242 | -90.59254 | 31952 ft | 384 kts | 269° |
| 2026-05-06 15:32 | 33.47406 | -90.65634 | 31962 ft | 383 kts | 269° |
| 2026-05-06 15:33 | 33.47567 | -90.72015 | 31970 ft | 382 kts | 269° |
| 2026-05-06 15:33 | 33.47724 | -90.78378 | 31983 ft | 382 kts | 269° |
| 2026-05-06 15:34 | 33.47877 | -90.84730 | 31988 ft | 381 kts | 269° |
| 2026-05-06 15:34 | 33.48002 | -90.90004 | 31991 ft | 381 kts | 269° |
| 2026-05-06 15:35 | 33.48149 | -90.96336 | 31993 ft | 380 kts | 269° |
| 2026-05-06 15:35 | 33.48293 | -91.02654 | 31992 ft | 379 kts | 269° |
| 2026-05-06 15:36 | 33.48433 | -91.08969 | 31990 ft | 379 kts | 269° |
| 2026-05-06 15:36 | 33.48570 | -91.15277 | 31990 ft | 378 kts | 268° |
| 2026-05-06 15:37 | 33.48703 | -91.21577 | 31984 ft | 378 kts | 268° |
| 2026-05-06 15:37 | 33.48833 | -91.27872 | 31980 ft | 378 kts | 268° |
| 2026-05-06 15:38 | 33.48960 | -91.34156 | 31979 ft | 377 kts | 268° |